sensor_id;sensor_type;location;lat;lon;timestamp;pressure;altitude;pressure_sealevel;temperature;humidity
69247;BME280;56358;56.328;43.992;2022-09-16T00:00:36;99461.22;;;11.31;79.79
69247;BME280;56358;56.328;43.992;2022-09-16T00:02:37;99375.47;;;10.83;79.14
69247;BME280;56358;56.328;43.992;2022-09-16T00:04:39;99422.75;;;11.12;79.02
69247;BME280;56358;56.328;43.992;2022-09-16T00:06:39;99323.69;;;10.55;78.69
69247;BME280;56358;56.328;43.992;2022-09-16T00:08:40;99439.50;;;11.24;78.91
69247;BME280;56358;56.328;43.992;2022-09-16T00:10:43;99449.47;;;11.32;79.26
69247;BME280;56358;56.328;43.992;2022-09-16T00:12:43;99462.06;;;11.31;79.33
69247;BME280;56358;56.328;43.992;2022-09-16T00:14:44;99451.47;;;11.30;79.51
69247;BME280;56358;56.328;43.992;2022-09-16T00:16:44;99380.56;;;10.86;79.22
69247;BME280;56358;56.328;43.992;2022-09-16T00:18:46;99430.19;;;11.18;79.28
69247;BME280;56358;56.328;43.992;2022-09-16T00:20:48;99458.53;;;11.31;79.67
69247;BME280;56358;56.328;43.992;2022-09-16T00:22:49;99451.91;;;11.25;79.75
69247;BME280;56358;56.328;43.992;2022-09-16T00:24:50;99451.53;;;11.20;79.56
69247;BME280;56358;56.328;43.992;2022-09-16T00:26:51;99464.63;;;11.23;79.52
69247;BME280;56358;56.328;43.992;2022-09-16T00:28:51;99399.25;;;10.96;79.34
69247;BME280;56358;56.328;43.992;2022-09-16T00:30:52;99455.69;;;11.32;80.11
69247;BME280;56358;56.328;43.992;2022-09-16T00:32:53;99460.97;;;11.24;79.46
69247;BME280;56358;56.328;43.992;2022-09-16T00:34:53;99464.97;;;11.38;79.63
69247;BME280;56358;56.328;43.992;2022-09-16T00:36:54;99438.13;;;11.20;79.48
69247;BME280;56358;56.328;43.992;2022-09-16T00:38:55;99440.81;;;11.20;79.41
69247;BME280;56358;56.328;43.992;2022-09-16T00:40:55;99464.88;;;11.30;79.58
69247;BME280;56358;56.328;43.992;2022-09-16T00:42:56;99414.16;;;11.09;79.56
69247;BME280;56358;56.328;43.992;2022-09-16T00:45:02;99463.13;;;11.38;79.72
69247;BME280;56358;56.328;43.992;2022-09-16T00:47:03;99415.69;;;11.11;79.04
69247;BME280;56358;56.328;43.992;2022-09-16T00:49:26;99467.66;;;11.38;78.58
69247;BME280;56358;56.328;43.992;2022-09-16T00:51:28;99465.81;;;11.38;78.69
69247;BME280;56358;56.328;43.992;2022-09-16T00:53:34;99452.16;;;11.32;78.73
69247;BME280;56358;56.328;43.992;2022-09-16T00:55:37;99466.53;;;11.40;79.14
69247;BME280;56358;56.328;43.992;2022-09-16T00:57:39;99454.16;;;11.30;78.89
69247;BME280;56358;56.328;43.992;2022-09-16T00:59:43;99463.59;;;11.34;78.75
69247;BME280;56358;56.328;43.992;2022-09-16T01:01:45;99386.84;;;10.95;79.09
69247;BME280;56358;56.328;43.992;2022-09-16T01:03:53;99452.16;;;11.32;79.00
69247;BME280;56358;56.328;43.992;2022-09-16T01:05:54;99396.75;;;10.95;79.22
69247;BME280;56358;56.328;43.992;2022-09-16T01:07:55;99461.31;;;11.39;79.21
69247;BME280;56358;56.328;43.992;2022-09-16T01:09:57;99457.41;;;11.33;79.72
69247;BME280;56358;56.328;43.992;2022-09-16T01:11:58;99459.22;;;11.33;79.39
69247;BME280;56358;56.328;43.992;2022-09-16T01:13:59;99385.16;;;10.94;79.51
69247;BME280;56358;56.328;43.992;2022-09-16T01:16:30;99467.97;;;11.35;79.59
69247;BME280;56358;56.328;43.992;2022-09-16T01:30:42;99469.66;;;11.36;80.21
69247;BME280;56358;56.328;43.992;2022-09-16T01:37:37;99443.16;;;10.95;80.66
69247;BME280;56358;56.328;43.992;2022-09-16T01:46:57;99486.91;;;11.33;80.54
69247;BME280;56358;56.328;43.992;2022-09-16T01:56:26;99454.47;;;11.27;80.83
69247;BME280;56358;56.328;43.992;2022-09-16T01:58:41;99452.75;;;11.26;80.67
69247;BME280;56358;56.328;43.992;2022-09-16T02:00:44;99458.06;;;11.35;80.66
69247;BME280;56358;56.328;43.992;2022-09-16T02:02:48;99476.44;;;11.40;80.58
69247;BME280;56358;56.328;43.992;2022-09-16T02:04:54;99453.69;;;11.34;80.80
69247;BME280;56358;56.328;43.992;2022-09-16T02:06:57;99454.84;;;11.32;80.65
69247;BME280;56358;56.328;43.992;2022-09-16T02:09:08;99469.50;;;11.37;80.69
69247;BME280;56358;56.328;43.992;2022-09-16T02:11:13;99335.13;;;10.57;80.36
69247;BME280;56358;56.328;43.992;2022-09-16T02:13:32;99466.28;;;11.34;80.72
69247;BME280;56358;56.328;43.992;2022-09-16T02:15:34;99466.28;;;11.34;81.11
69247;BME280;56358;56.328;43.992;2022-09-16T02:17:42;99476.19;;;11.33;81.31
69247;BME280;56358;56.328;43.992;2022-09-16T02:20:00;99463.91;;;11.31;81.80
69247;BME280;56358;56.328;43.992;2022-09-16T02:22:08;99427.00;;;11.05;81.40
69247;BME280;56358;56.328;43.992;2022-09-16T02:24:13;99451.78;;;11.27;81.90
69247;BME280;56358;56.328;43.992;2022-09-16T02:26:19;99462.50;;;11.27;81.31
69247;BME280;56358;56.328;43.992;2022-09-16T02:28:26;99416.03;;;10.98;81.10
69247;BME280;56358;56.328;43.992;2022-09-16T02:30:30;99458.13;;;11.26;81.15
69247;BME280;56358;56.328;43.992;2022-09-16T02:32:35;99466.28;;;11.34;80.95
69247;BME280;56358;56.328;43.992;2022-09-16T02:34:40;99465.13;;;11.36;80.65
69247;BME280;56358;56.328;43.992;2022-09-16T02:36:44;99454.84;;;11.32;80.55
69247;BME280;56358;56.328;43.992;2022-09-16T02:38:49;99468.38;;;11.40;80.34
69247;BME280;56358;56.328;43.992;2022-09-16T02:40:55;99464.97;;;11.38;80.37
69247;BME280;56358;56.328;43.992;2022-09-16T02:42:57;99459.06;;;11.34;80.16
69247;BME280;56358;56.328;43.992;2022-09-16T02:44:59;99461.91;;;11.33;80.27
69247;BME280;56358;56.328;43.992;2022-09-16T02:47:15;99466.84;;;11.37;80.26
69247;BME280;56358;56.328;43.992;2022-09-16T02:54:47;99467.97;;;11.35;79.98
69247;BME280;56358;56.328;43.992;2022-09-16T02:56:49;99471.09;;;11.30;79.98
69247;BME280;56358;56.328;43.992;2022-09-16T02:58:50;99471.50;;;11.35;79.85
69247;BME280;56358;56.328;43.992;2022-09-16T03:00:53;99481.22;;;11.36;79.69
69247;BME280;56358;56.328;43.992;2022-09-16T03:02:54;99469.94;;;11.33;79.83
69247;BME280;56358;56.328;43.992;2022-09-16T03:04:55;99468.97;;;11.34;80.08
69247;BME280;56358;56.328;43.992;2022-09-16T03:06:56;99471.66;;;11.34;80.16
69247;BME280;56358;56.328;43.992;2022-09-16T03:08:58;99478.41;;;11.38;80.00
69247;BME280;56358;56.328;43.992;2022-09-16T03:11:10;99465.44;;;11.33;79.47
69247;BME280;56358;56.328;43.992;2022-09-16T03:13:40;99478.41;;;11.38;79.73
69247;BME280;56358;56.328;43.992;2022-09-16T03:16:07;99474.31;;;11.34;79.58
69247;BME280;56358;56.328;43.992;2022-09-16T03:18:37;99481.38;;;11.35;79.43
69247;BME280;56358;56.328;43.992;2022-09-16T03:20:47;99485.78;;;11.36;80.00
69247;BME280;56358;56.328;43.992;2022-09-16T03:23:16;99486.59;;;11.36;79.89
69247;BME280;56358;56.328;43.992;2022-09-16T03:28:13;99494.00;;;11.24;79.90
69247;BME280;56358;56.328;43.992;2022-09-16T03:30:17;99481.41;;;11.25;79.84
69247;BME280;56358;56.328;43.992;2022-09-16T03:32:23;99492.13;;;11.35;80.38
69247;BME280;56358;56.328;43.992;2022-09-16T03:34:50;99496.50;;;11.36;80.34
69247;BME280;56358;56.328;43.992;2022-09-16T03:36:57;99491.88;;;11.28;80.22
69247;BME280;56358;56.328;43.992;2022-09-16T03:38:59;99491.56;;;11.31;80.27
69247;BME280;56358;56.328;43.992;2022-09-16T03:41:02;99479.44;;;11.27;80.48
69247;BME280;56358;56.328;43.992;2022-09-16T03:43:14;99509.78;;;11.37;80.68
69247;BME280;56358;56.328;43.992;2022-09-16T03:45:20;99509.78;;;11.37;80.80
69247;BME280;56358;56.328;43.992;2022-09-16T03:47:21;99513.44;;;11.36;80.91
69247;BME280;56358;56.328;43.992;2022-09-16T03:49:22;99500.75;;;11.29;80.79
69247;BME280;56358;56.328;43.992;2022-09-16T03:51:23;99514.81;;;11.40;80.81
69247;BME280;56358;56.328;43.992;2022-09-16T03:53:24;99516.38;;;11.43;81.01
69247;BME280;56358;56.328;43.992;2022-09-16T03:55:25;99512.19;;;11.31;80.87
69247;BME280;56358;56.328;43.992;2022-09-16T03:57:26;99514.41;;;11.35;80.62
69247;BME280;56358;56.328;43.992;2022-09-16T03:59:27;99511.06;;;11.33;80.72
69247;BME280;56358;56.328;43.992;2022-09-16T04:01:28;99520.91;;;11.43;80.91
69247;BME280;56358;56.328;43.992;2022-09-16T04:03:29;99445.00;;;10.95;81.07
69247;BME280;56358;56.328;43.992;2022-09-16T04:05:31;99505.53;;;11.35;80.76
69247;BME280;56358;56.328;43.992;2022-09-16T04:07:31;99513.69;;;11.43;81.02
69247;BME280;56358;56.328;43.992;2022-09-16T04:09:32;99516.94;;;11.47;80.83
69247;BME280;56358;56.328;43.992;2022-09-16T04:11:34;99453.19;;;11.21;80.83
69247;BME280;56358;56.328;43.992;2022-09-16T04:13:35;99492.91;;;11.45;80.27
69247;BME280;56358;56.328;43.992;2022-09-16T04:15:36;99518.97;;;11.63;80.52
69247;BME280;56358;56.328;43.992;2022-09-16T04:17:38;99494.00;;;11.52;80.18
69247;BME280;56358;56.328;43.992;2022-09-16T04:19:38;99455.38;;;11.35;80.10
69247;BME280;56358;56.328;43.992;2022-09-16T04:21:40;99511.81;;;11.71;79.67
69247;BME280;56358;56.328;43.992;2022-09-16T04:23:41;99518.97;;;11.81;79.43
69247;BME280;56358;56.328;43.992;2022-09-16T04:25:42;99513.78;;;11.79;79.37
69247;BME280;56358;56.328;43.992;2022-09-16T04:27:42;99496.44;;;11.73;79.36
69247;BME280;56358;56.328;43.992;2022-09-16T04:29:43;99490.28;;;11.81;78.68
69247;BME280;56358;56.328;43.992;2022-09-16T04:31:43;99444.38;;;11.56;78.28
69247;BME280;56358;56.328;43.992;2022-09-16T04:33:44;99518.91;;;12.00;77.85
69247;BME280;56358;56.328;43.992;2022-09-16T04:35:45;99510.53;;;12.03;77.73
69247;BME280;56358;56.328;43.992;2022-09-16T04:37:45;99519.41;;;12.04;77.45
69247;BME280;56358;56.328;43.992;2022-09-16T04:39:46;99520.19;;;12.14;77.28
69247;BME280;56358;56.328;43.992;2022-09-16T04:41:46;99527.53;;;12.12;77.05
69247;BME280;56358;56.328;43.992;2022-09-16T04:43:51;99512.53;;;12.19;76.60
69247;BME280;56358;56.328;43.992;2022-09-16T04:45:52;99524.66;;;12.23;76.48
69247;BME280;56358;56.328;43.992;2022-09-16T04:47:57;99510.50;;;12.21;76.29
69247;BME280;56358;56.328;43.992;2022-09-16T04:49:57;99433.66;;;11.74;76.18
69247;BME280;56358;56.328;43.992;2022-09-16T04:51:58;99479.97;;;12.04;76.39
69247;BME280;56358;56.328;43.992;2022-09-16T04:53:59;99511.88;;;12.26;76.05
69247;BME280;56358;56.328;43.992;2022-09-16T04:56:07;99388.34;;;11.53;75.97
69247;BME280;56358;56.328;43.992;2022-09-16T04:58:08;99518.19;;;12.34;75.99
69247;BME280;56358;56.328;43.992;2022-09-16T05:00:10;99516.44;;;12.43;75.34
69247;BME280;56358;56.328;43.992;2022-09-16T05:02:10;99511.72;;;12.45;75.44
69247;BME280;56358;56.328;43.992;2022-09-16T05:04:11;99503.00;;;12.43;75.52
69247;BME280;56358;56.328;43.992;2022-09-16T05:06:20;99506.03;;;12.48;75.13
69247;BME280;56358;56.328;43.992;2022-09-16T05:08:21;99530.00;;;12.60;74.65
69247;BME280;56358;56.328;43.992;2022-09-16T05:10:22;99429.31;;;12.10;74.74
69247;BME280;56358;56.328;43.992;2022-09-16T05:12:22;99514.91;;;12.67;74.70
69247;BME280;56358;56.328;43.992;2022-09-16T05:14:23;99526.75;;;12.74;74.16
69247;BME280;56358;56.328;43.992;2022-09-16T05:16:24;99512.81;;;12.79;73.76
69247;BME280;56358;56.328;43.992;2022-09-16T05:18:24;99489.38;;;12.71;73.98
69247;BME280;56358;56.328;43.992;2022-09-16T05:20:25;99524.81;;;12.93;73.56
69247;BME280;56358;56.328;43.992;2022-09-16T05:22:26;99521.19;;;13.02;73.40
69247;BME280;56358;56.328;43.992;2022-09-16T05:24:26;99504.94;;;13.12;73.35
69247;BME280;56358;56.328;43.992;2022-09-16T05:26:29;99508.69;;;13.19;72.44
69247;BME280;56358;56.328;43.992;2022-09-16T05:28:31;99520.72;;;13.33;71.81
69247;BME280;56358;56.328;43.992;2022-09-16T05:30:32;99533.38;;;13.40;71.77
69247;BME280;56358;56.328;43.992;2022-09-16T05:32:32;99517.13;;;13.50;70.68
69247;BME280;56358;56.328;43.992;2022-09-16T05:34:33;99515.41;;;13.49;70.52
69247;BME280;56358;56.328;43.992;2022-09-16T05:36:36;99497.22;;;13.43;70.00
69247;BME280;56358;56.328;43.992;2022-09-16T05:38:39;99522.88;;;13.64;69.68
69247;BME280;56358;56.328;43.992;2022-09-16T05:40:39;99446.31;;;13.23;69.41
69247;BME280;56358;56.328;43.992;2022-09-16T05:42:40;99514.13;;;13.70;68.90
69247;BME280;56358;56.328;43.992;2022-09-16T05:44:41;99459.16;;;13.38;68.94
69247;BME280;56358;56.328;43.992;2022-09-16T05:46:42;99498.97;;;13.69;68.75
69247;BME280;56358;56.328;43.992;2022-09-16T05:48:43;99515.03;;;13.95;68.46
69247;BME280;56358;56.328;43.992;2022-09-16T05:51:03;99521.13;;;13.97;67.73
69247;BME280;56358;56.328;43.992;2022-09-16T05:53:04;99510.00;;;14.00;67.93
69247;BME280;56358;56.328;43.992;2022-09-16T05:55:05;99512.72;;;14.25;67.20
69247;BME280;56358;56.328;43.992;2022-09-16T05:57:06;99509.19;;;14.24;66.95
69247;BME280;56358;56.328;43.992;2022-09-16T05:59:06;99510.38;;;14.38;66.94
69247;BME280;56358;56.328;43.992;2022-09-16T06:01:33;99438.94;;;14.10;66.30
69247;BME280;56358;56.328;43.992;2022-09-16T06:03:33;99511.06;;;14.65;65.66
69247;BME280;56358;56.328;43.992;2022-09-16T06:05:34;99507.19;;;14.68;65.10
69247;BME280;56358;56.328;43.992;2022-09-16T06:07:35;99511.06;;;14.82;65.13
69247;BME280;56358;56.328;43.992;2022-09-16T06:09:36;99507.34;;;14.83;64.61
69247;BME280;56358;56.328;43.992;2022-09-16T06:11:39;99452.22;;;14.52;64.75
69247;BME280;56358;56.328;43.992;2022-09-16T06:13:40;99501.63;;;14.78;64.36
69247;BME280;56358;56.328;43.992;2022-09-16T06:15:50;99503.78;;;14.90;64.79
69247;BME280;56358;56.328;43.992;2022-09-16T06:17:53;99517.09;;;14.92;64.47
69247;BME280;56358;56.328;43.992;2022-09-16T06:19:54;99491.28;;;14.89;64.29
69247;BME280;56358;56.328;43.992;2022-09-16T06:21:54;99519.31;;;14.97;64.45
69247;BME280;56358;56.328;43.992;2022-09-16T06:23:55;99497.88;;;14.95;64.09
69247;BME280;56358;56.328;43.992;2022-09-16T06:26:20;99506.75;;;15.12;63.65
69247;BME280;56358;56.328;43.992;2022-09-16T06:28:21;99491.78;;;15.01;63.31
69247;BME280;56358;56.328;43.992;2022-09-16T06:30:22;99525.50;;;15.22;63.41
69247;BME280;56358;56.328;43.992;2022-09-16T06:32:22;99509.97;;;15.16;63.53
69247;BME280;56358;56.328;43.992;2022-09-16T06:34:23;99517.22;;;15.23;63.48
69247;BME280;56358;56.328;43.992;2022-09-16T06:36:27;99510.63;;;15.26;63.57
69247;BME280;56358;56.328;43.992;2022-09-16T06:38:28;99507.75;;;15.28;63.65
69247;BME280;56358;56.328;43.992;2022-09-16T06:40:28;99435.50;;;14.90;63.12
69247;BME280;56358;56.328;43.992;2022-09-16T06:42:29;99496.25;;;15.34;63.17
69247;BME280;56358;56.328;43.992;2022-09-16T06:44:29;99497.59;;;15.38;63.21
69247;BME280;56358;56.328;43.992;2022-09-16T06:46:30;99506.31;;;15.48;63.33
69247;BME280;56358;56.328;43.992;2022-09-16T06:48:32;99505.63;;;15.54;63.19
69247;BME280;56358;56.328;43.992;2022-09-16T06:50:33;99511.38;;;15.51;63.10
69247;BME280;56358;56.328;43.992;2022-09-16T06:52:33;99368.78;;;14.59;63.24
69247;BME280;56358;56.328;43.992;2022-09-16T06:54:34;99511.06;;;15.46;62.92
69247;BME280;56358;56.328;43.992;2022-09-16T06:56:35;99446.75;;;15.02;62.86
69247;BME280;56358;56.328;43.992;2022-09-16T06:58:40;99456.38;;;15.04;62.92
69247;BME280;56358;56.328;43.992;2022-09-16T07:00:41;99513.63;;;15.39;63.38
69247;BME280;56358;56.328;43.992;2022-09-16T07:02:42;99501.63;;;15.42;63.04
69247;BME280;56358;56.328;43.992;2022-09-16T07:04:42;99502.22;;;15.52;62.62
69247;BME280;56358;56.328;43.992;2022-09-16T07:06:43;99520.13;;;15.53;62.43
69247;BME280;56358;56.328;43.992;2022-09-16T07:08:46;99498.88;;;15.50;61.89
69247;BME280;56358;56.328;43.992;2022-09-16T07:10:55;99481.72;;;15.35;61.93
69247;BME280;56358;56.328;43.992;2022-09-16T07:12:56;99493.34;;;15.44;62.68
69247;BME280;56358;56.328;43.992;2022-09-16T07:14:56;99513.03;;;15.61;62.44
69247;BME280;56358;56.328;43.992;2022-09-16T07:16:58;99513.03;;;15.61;62.47
69247;BME280;56358;56.328;43.992;2022-09-16T07:18:59;99500.53;;;15.59;62.00
69247;BME280;56358;56.328;43.992;2022-09-16T07:21:05;99492.59;;;15.58;61.34
69247;BME280;56358;56.328;43.992;2022-09-16T07:23:05;99500.78;;;15.73;61.63
69247;BME280;56358;56.328;43.992;2022-09-16T07:25:06;99509.91;;;15.80;61.33
69247;BME280;56358;56.328;43.992;2022-09-16T07:27:07;99455.66;;;15.50;61.30
69247;BME280;56358;56.328;43.992;2022-09-16T07:29:12;99492.38;;;15.68;60.81
69247;BME280;56358;56.328;43.992;2022-09-16T07:31:16;99517.84;;;15.73;60.54
69247;BME280;56358;56.328;43.992;2022-09-16T07:33:17;99521.28;;;15.67;61.11
69247;BME280;56358;56.328;43.992;2022-09-16T07:35:17;99511.66;;;15.65;61.54
69247;BME280;56358;56.328;43.992;2022-09-16T07:37:18;99525.84;;;15.58;61.49
69247;BME280;56358;56.328;43.992;2022-09-16T07:39:19;99509.81;;;15.57;61.99
69247;BME280;56358;56.328;43.992;2022-09-16T07:41:24;99500.56;;;15.51;61.79
69247;BME280;56358;56.328;43.992;2022-09-16T07:43:26;99391.66;;;14.80;61.83
69247;BME280;56358;56.328;43.992;2022-09-16T07:45:27;99510.50;;;15.51;61.74
69247;BME280;56358;56.328;43.992;2022-09-16T07:47:27;99489.78;;;15.43;62.03
69247;BME280;56358;56.328;43.992;2022-09-16T07:49:28;99499.72;;;15.51;62.03
69247;BME280;56358;56.328;43.992;2022-09-16T07:51:29;99500.53;;;15.59;62.04
69247;BME280;56358;56.328;43.992;2022-09-16T07:53:31;99421.72;;;15.16;61.37
69247;BME280;56358;56.328;43.992;2022-09-16T07:55:33;99508.31;;;15.54;61.35
69247;BME280;56358;56.328;43.992;2022-09-16T07:57:34;99493.97;;;15.54;61.62
69247;BME280;56358;56.328;43.992;2022-09-16T07:59:35;99473.25;;;15.46;61.37
69247;BME280;56358;56.328;43.992;2022-09-16T08:01:35;99441.75;;;15.30;61.63
69247;BME280;56358;56.328;43.992;2022-09-16T08:03:37;99508.78;;;15.66;61.20
69247;BME280;56358;56.328;43.992;2022-09-16T08:05:38;99488.97;;;15.74;60.51
69247;BME280;56358;56.328;43.992;2022-09-16T08:07:39;99472.78;;;15.66;60.50
69247;BME280;56358;56.328;43.992;2022-09-16T08:09:39;99493.69;;;15.80;60.77
69247;BME280;56358;56.328;43.992;2022-09-16T08:11:40;99489.13;;;15.81;60.23
69247;BME280;56358;56.328;43.992;2022-09-16T08:13:41;99491.97;;;15.87;60.29
69247;BME280;56358;56.328;43.992;2022-09-16T08:15:42;99472.22;;;15.79;60.75
69247;BME280;56358;56.328;43.992;2022-09-16T08:17:43;99500.91;;;15.88;60.35
69247;BME280;56358;56.328;43.992;2022-09-16T08:19:44;99478.41;;;15.96;60.16
69247;BME280;56358;56.328;43.992;2022-09-16T08:21:44;99419.00;;;15.79;59.62
69247;BME280;56358;56.328;43.992;2022-09-16T08:23:46;99482.97;;;16.18;58.92
69247;BME280;56358;56.328;43.992;2022-09-16T08:25:46;99391.53;;;15.75;58.78
69247;BME280;56358;56.328;43.992;2022-09-16T08:27:47;99477.44;;;16.35;58.51
69247;BME280;56358;56.328;43.992;2022-09-16T08:29:48;99452.53;;;16.39;58.60
69247;BME280;56358;56.328;43.992;2022-09-16T08:31:48;99402.88;;;16.17;58.44
69247;BME280;56358;56.328;43.992;2022-09-16T08:33:49;99442.09;;;16.51;58.20
69247;BME280;56358;56.328;43.992;2022-09-16T08:38:02;99453.34;;;16.78;57.14
69247;BME280;56358;56.328;43.992;2022-09-16T08:40:03;99454.75;;;16.89;56.73
69247;BME280;56358;56.328;43.992;2022-09-16T08:47:02;99458.34;;;17.04;55.20
69247;BME280;56358;56.328;43.992;2022-09-16T08:49:40;99464.69;;;17.12;54.51
69247;BME280;56358;56.328;43.992;2022-09-16T08:51:42;99460.03;;;17.20;54.03
69247;BME280;56358;56.328;43.992;2022-09-16T08:54:26;99458.41;;;17.41;52.94
69247;BME280;56358;56.328;43.992;2022-09-16T08:56:29;99457.72;;;17.54;52.18
69247;BME280;56358;56.328;43.992;2022-09-16T08:58:55;99466.22;;;17.66;50.29
69247;BME280;56358;56.328;43.992;2022-09-16T09:01:02;99464.56;;;17.50;51.29
69247;BME280;56358;56.328;43.992;2022-09-16T09:03:13;99463.38;;;17.37;52.48
69247;BME280;56358;56.328;43.992;2022-09-16T09:05:29;99473.44;;;17.43;52.25
69247;BME280;56358;56.328;43.992;2022-09-16T09:07:49;99442.25;;;17.33;52.25
69247;BME280;56358;56.328;43.992;2022-09-16T09:12:18;99460.16;;;17.49;52.98
69247;BME280;56358;56.328;43.992;2022-09-16T09:26:19;99454.22;;;17.23;54.55
69247;BME280;56358;56.328;43.992;2022-09-16T09:38:31;99460.31;;;17.25;53.51
69247;BME280;56358;56.328;43.992;2022-09-16T09:40:42;99456.16;;;17.45;53.01
69247;BME280;56358;56.328;43.992;2022-09-16T09:47:09;99461.53;;;17.96;50.90
69247;BME280;56358;56.328;43.992;2022-09-16T09:52:01;99462.84;;;18.00;50.21
69247;BME280;56358;56.328;43.992;2022-09-16T09:56:17;99443.91;;;18.50;49.64
69247;BME280;56358;56.328;43.992;2022-09-16T10:01:04;99417.78;;;18.49;49.13
69247;BME280;56358;56.328;43.992;2022-09-16T10:03:14;99388.66;;;18.36;48.80
69247;BME280;56358;56.328;43.992;2022-09-16T10:05:24;99440.69;;;18.97;47.95
69247;BME280;56358;56.328;43.992;2022-09-16T10:07:25;99417.72;;;18.71;48.67
69247;BME280;56358;56.328;43.992;2022-09-16T10:09:27;99437.81;;;19.05;48.31
69247;BME280;56358;56.328;43.992;2022-09-16T10:11:30;99439.59;;;19.26;47.59
69247;BME280;56358;56.328;43.992;2022-09-16T10:13:30;99426.69;;;19.41;47.44
69247;BME280;56358;56.328;43.992;2022-09-16T10:15:31;99442.25;;;19.61;46.70
69247;BME280;56358;56.328;43.992;2022-09-16T10:17:34;99387.00;;;19.47;45.73
69247;BME280;56358;56.328;43.992;2022-09-16T10:19:47;99450.34;;;20.03;45.39
69247;BME280;56358;56.328;43.992;2022-09-16T10:21:52;99443.44;;;20.27;45.52
69247;BME280;56358;56.328;43.992;2022-09-16T10:23:56;99439.25;;;20.11;44.49
69247;BME280;56358;56.328;43.992;2022-09-16T10:28:22;99439.38;;;19.76;45.08
69247;BME280;56358;56.328;43.992;2022-09-16T10:30:23;99335.72;;;19.24;45.31
69247;BME280;56358;56.328;43.992;2022-09-16T10:32:24;99414.69;;;19.77;45.13
69247;BME280;56358;56.328;43.992;2022-09-16T10:34:31;99413.09;;;20.17;45.34
69247;BME280;56358;56.328;43.992;2022-09-16T10:36:34;99358.66;;;20.10;44.51
69247;BME280;56358;56.328;43.992;2022-09-16T10:38:40;99427.09;;;20.81;43.41
69247;BME280;56358;56.328;43.992;2022-09-16T10:42:57;99430.03;;;21.51;42.76
69247;BME280;56358;56.328;43.992;2022-09-16T10:45:30;99414.88;;;21.69;41.68
69247;BME280;56358;56.328;43.992;2022-09-16T10:47:31;99421.66;;;21.46;42.66
69247;BME280;56358;56.328;43.992;2022-09-16T10:49:54;99422.66;;;21.52;40.90
69247;BME280;56358;56.328;43.992;2022-09-16T10:52:06;99421.56;;;21.14;40.74
69247;BME280;56358;56.328;43.992;2022-09-16T10:54:22;99370.75;;;20.54;42.14
69247;BME280;56358;56.328;43.992;2022-09-16T10:56:29;99418.50;;;20.57;42.99
69247;BME280;56358;56.328;43.992;2022-09-16T10:58:31;99368.94;;;19.95;43.64
69247;BME280;56358;56.328;43.992;2022-09-16T11:00:41;99418.50;;;20.03;44.33
69247;BME280;56358;56.328;43.992;2022-09-16T11:10:23;99417.88;;;19.33;46.17
69247;BME280;56358;56.328;43.992;2022-09-16T11:13:07;99415.38;;;19.31;46.02
69247;BME280;56358;56.328;43.992;2022-09-16T11:18:06;99405.59;;;18.67;47.17
69247;BME280;56358;56.328;43.992;2022-09-16T11:22:44;99394.03;;;18.30;48.86
69247;BME280;56358;56.328;43.992;2022-09-16T11:27:22;99389.41;;;18.23;49.18
69247;BME280;56358;56.328;43.992;2022-09-16T11:30:01;99394.84;;;18.23;49.00
69247;BME280;56358;56.328;43.992;2022-09-16T11:37:37;99381.50;;;18.00;49.61
69247;BME280;56358;56.328;43.992;2022-09-16T11:41:57;99374.41;;;18.56;48.46
69247;BME280;56358;56.328;43.992;2022-09-16T11:49:15;99378.06;;;18.76;46.87
69247;BME280;56358;56.328;43.992;2022-09-16T12:00:30;99346.78;;;19.22;45.24
69247;BME280;56358;56.328;43.992;2022-09-16T12:04:47;99357.56;;;19.77;43.90
69247;BME280;56358;56.328;43.992;2022-09-16T12:09:11;99360.34;;;20.11;43.27
69247;BME280;56358;56.328;43.992;2022-09-16T12:11:36;99325.97;;;19.70;43.68
69247;BME280;56358;56.328;43.992;2022-09-16T12:13:42;99311.31;;;19.57;44.10
69247;BME280;56358;56.328;43.992;2022-09-16T12:15:49;99358.81;;;19.75;44.22
69247;BME280;56358;56.328;43.992;2022-09-16T12:17:56;99345.00;;;19.70;44.14
69247;BME280;56358;56.328;43.992;2022-09-16T12:20:05;99365.84;;;19.36;44.63
69247;BME280;56358;56.328;43.992;2022-09-16T12:22:57;99359.69;;;19.07;45.61
69247;BME280;56358;56.328;43.992;2022-09-16T12:24:41;99354.38;;;18.57;46.58
69247;BME280;56358;56.328;43.992;2022-09-16T12:26:51;99349.31;;;18.19;47.42
69247;BME280;56358;56.328;43.992;2022-09-16T12:29:05;99360.66;;;18.01;48.00
69247;BME280;56358;56.328;43.992;2022-09-16T12:31:18;99375.75;;;17.88;48.65
69247;BME280;56358;56.328;43.992;2022-09-16T12:33:25;99361.94;;;17.83;48.74
69247;BME280;56358;56.328;43.992;2022-09-16T12:35:36;99363.91;;;17.74;49.77
69247;BME280;56358;56.328;43.992;2022-09-16T12:37:48;99344.38;;;17.57;50.10
69247;BME280;56358;56.328;43.992;2022-09-16T12:39:49;99303.47;;;17.31;50.30
69247;BME280;56358;56.328;43.992;2022-09-16T12:56:01;99349.84;;;16.76;52.81
69247;BME280;56358;56.328;43.992;2022-09-16T12:58:23;99363.38;;;16.76;53.45
69247;BME280;56358;56.328;43.992;2022-09-16T13:00:38;99374.66;;;16.65;53.45
69247;BME280;56358;56.328;43.992;2022-09-16T13:02:48;99355.00;;;16.56;53.93
69247;BME280;56358;56.328;43.992;2022-09-16T13:04:56;99361.72;;;16.60;54.02
69247;BME280;56358;56.328;43.992;2022-09-16T13:06:58;99345.09;;;16.48;54.53
69247;BME280;56358;56.328;43.992;2022-09-16T13:09:34;99346.13;;;16.47;54.50
69247;BME280;56358;56.328;43.992;2022-09-16T13:11:38;99333.16;;;16.42;54.79
69247;BME280;56358;56.328;43.992;2022-09-16T13:13:41;99317.56;;;16.45;54.76
69247;BME280;56358;56.328;43.992;2022-09-16T13:15:54;99327.00;;;16.64;55.90
69247;BME280;56358;56.328;43.992;2022-09-16T13:20:30;99355.09;;;16.92;55.23